Bei Facebook empfehlenBei Twitter postenGoogle plusPinterest

Das Wetter im Erzgebirge am 25.08.2017

Wetter und Klima am 25.08.2017 Holzhau im Erzgebirge (630m ü.NN)
Letzte gemessene Temperatur und Uhrzeit der Messung09:00:00 Uhr15.10 °C
Temperatur (Maximum / Höchstwert) und Uhrzeit der Messung09:00:00 Uhr15.10 °C
Temperatur (Minimum / Tiefstwert) und Uhrzeit der Messung06:45:009.20 °C
Errechneter Absolutwert der Temperaturschwankungen zwischen Tmin und Tmax des Tages5.90 K
Errechnete Tagesmitteltemperatur11.52432 °C
Gesamt - Niederschlag des Tages (in flüssiger Form)0.00 Liter / m²
Luftdruck (Maximum / Höchstwert) und Zeitpunkt der Messung09:00:00 Uhr1016.10 hPa
Luftdruck (Minimum / Tiefstwert) und Zeitpunkt der Messung05:45:00 Uhr1015.30 hPa
Errechneter Absolutwert der Luftdruckschwankungen des Tages0.80 hPa
Höchste gemessene Windgeschwindigkeit und Uhrzeit der Messung04:30:00 Uhr11.52 km/h
Errechnete Windhäufigkeit in Relation zu den Messwerten des Tages2.70270 %
Niedrigste Windkühle (Windchill) und Zeitpunkt der Messung06:45:00 Uhr9.20 °C
Taupunkt (Maximum / Höchstwert) und Uhrzeit der Messung09:00:00 Uhr13.50 °C
Taupunkt (Minimum / Tiefstwert) und Uhrzeit der Messung06:45:008.10 °C
Anzahl der automatisch eingelesenen Messwerte 37

Detaillierte Wetter- und Klima- Messwerte für den 25.08.2017 in Holzhau im Erzgebirge (630m ü.NN)
ZeitTemperaturLuftdruckRel. LuftfeuchteWindWindrichtungWindchillTaupunktNiederschlag l/m²
09:00:0015.10 °C1016.10 hPa90.00 %13.50 °C 
08:45:0013.90 °C1016.10 hPa91.00 %12.50 °C 
08:30:0012.60 °C1016.00 hPa92.00 %11.30 °C 
08:15:0011.80 °C1015.90 hPa93.00 %10.70 °C 
08:00:0010.80 °C1015.90 hPa93.00 %9.70 °C 
07:45:0010.20 °C1015.80 hPa94.00 %9.30 °C 
07:30:009.60 °C1015.80 hPa94.00 %8.70 °C 
07:15:009.30 °C1015.70 hPa93.00 %8.20 °C 
07:00:009.30 °C1015.80 hPa93.00 %8.20 °C 
06:45:009.20 °C1015.70 hPa93.00 %8.10 °C 
06:30:009.30 °C1015.60 hPa93.00 %8.20 °C 
06:15:009.20 °C1015.70 hPa93.00 %8.10 °C 
06:00:009.50 °C1015.40 hPa93.00 %8.40 °C 
05:45:009.60 °C1015.30 hPa93.00 %8.50 °C 
05:30:009.60 °C1015.40 hPa92.00 %8.40 °C 
05:15:009.90 °C1015.70 hPa92.00 %8.70 °C 
05:00:0010.30 °C1015.50 hPa92.00 %9.10 °C 
04:45:0010.40 °C1015.80 hPa92.00 %9.20 °C 
04:30:0010.50 °C1015.70 hPa92.00 %11.52 km/hOSO10.50 °C9.30 °C 
04:15:0010.40 °C1015.70 hPa91.00 %9.00 °C 
04:00:0010.70 °C1015.70 hPa91.00 %9.30 °C 
03:45:0011.10 °C1015.80 hPa91.00 %9.70 °C 
03:30:0011.40 °C1016.00 hPa91.00 %10.00 °C 
03:15:0011.50 °C1015.90 hPa91.00 %10.10 °C 
03:00:0011.40 °C1015.70 hPa90.00 %9.80 °C 
02:45:0011.60 °C1015.80 hPa90.00 %10.00 °C 
02:30:0011.80 °C1015.70 hPa89.00 %10.00 °C 
02:15:0012.00 °C1015.80 hPa89.00 %10.20 °C 
02:00:0012.30 °C1015.80 hPa88.00 %10.40 °C 
01:45:0012.90 °C1015.80 hPa88.00 %11.00 °C 
01:30:0013.40 °C1015.80 hPa87.00 %11.30 °C 
01:15:0013.90 °C1015.80 hPa87.00 %11.80 °C 
01:00:0014.40 °C1015.70 hPa88.00 %12.40 °C 
00:45:0014.40 °C1015.90 hPa88.00 %12.40 °C 
00:30:0014.40 °C1015.70 hPa88.00 %12.40 °C 
00:15:0014.40 °C1015.80 hPa88.00 %12.40 °C 
00:00:0014.30 °C1015.40 hPa88.00 %12.30 °C 

Permanenter Link zu dieser Seite: Wetter im Erzgebirge am 25.08.2017
Performance-Info: Die Erstellung der Seite / Statistik(en) / Tabelle(n) erforderte 5 Datenbankserver-Abfrage(n) und dauerte 96 Millisekunden. (Dieser Messwert ist von der Gesamt-Auslastung des Servers abhängig.)
Erzgebirge - Wetter | Erzgebirge - Wetter (Mobilgeräte) | Komplette Klimadatenbank